sensor_id;sensor_type;location;lat;lon;timestamp;temperature;humidity
5919;DHT22;2985;48.142;16.344;2023-03-31T15:40:35;13.10;94.50
5919;DHT22;2985;48.142;16.344;2023-03-31T15:45:51;13.10;94.60
5919;DHT22;2985;48.142;16.344;2023-03-31T15:51:31;12.80;95.20
5919;DHT22;2985;48.142;16.344;2023-03-31T15:56:43;12.80;95.00
5919;DHT22;2985;48.142;16.344;2023-03-31T16:01:54;12.90;94.60
5919;DHT22;2985;48.142;16.344;2023-03-31T16:07:07;12.90;94.90
5919;DHT22;2985;48.142;16.344;2023-03-31T16:12:32;13.00;94.50
5919;DHT22;2985;48.142;16.344;2023-03-31T16:17:53;13.00;94.30
5919;DHT22;2985;48.142;16.344;2023-03-31T16:23:17;13.00;94.20
5919;DHT22;2985;48.142;16.344;2023-03-31T16:28:31;13.00;94.20
5919;DHT22;2985;48.142;16.344;2023-03-31T16:33:53;13.00;94.10
5919;DHT22;2985;48.142;16.344;2023-03-31T16:39:05;13.00;94.20
5919;DHT22;2985;48.142;16.344;2023-03-31T16:44:14;13.00;94.10
5919;DHT22;2985;48.142;16.344;2023-03-31T16:49:24;13.00;94.00
5919;DHT22;2985;48.142;16.344;2023-03-31T16:54:34;13.10;94.20
5919;DHT22;2985;48.142;16.344;2023-03-31T16:59:44;13.00;94.00
5919;DHT22;2985;48.142;16.344;2023-03-31T17:04:53;13.00;93.90
5919;DHT22;2985;48.142;16.344;2023-03-31T17:10:03;13.00;93.90
5919;DHT22;2985;48.142;16.344;2023-03-31T17:15:13;13.00;93.70
5919;DHT22;2985;48.142;16.344;2023-03-31T17:20:22;13.00;93.60
5919;DHT22;2985;48.142;16.344;2023-03-31T17:25:32;13.00;93.40
5919;DHT22;2985;48.142;16.344;2023-03-31T17:30:45;13.00;93.40
5919;DHT22;2985;48.142;16.344;2023-03-31T17:35:57;13.00;93.50
5919;DHT22;2985;48.142;16.344;2023-03-31T17:41:09;12.90;93.50
5919;DHT22;2985;48.142;16.344;2023-03-31T17:46:19;12.90;92.90
5919;DHT22;2985;48.142;16.344;2023-03-31T17:51:28;13.00;92.70
5919;DHT22;2985;48.142;16.344;2023-03-31T17:56:41;13.20;92.40
5919;DHT22;2985;48.142;16.344;2023-03-31T18:01:51;13.20;92.60
5919;DHT22;2985;48.142;16.344;2023-03-31T18:07:00;13.20;93.00
5919;DHT22;2985;48.142;16.344;2023-03-31T18:17:21;13.50;92.00
5919;DHT22;2985;48.142;16.344;2023-03-31T18:22:30;13.40;92.40
5919;DHT22;2985;48.142;16.344;2023-03-31T18:27:41;13.40;92.30
5919;DHT22;2985;48.142;16.344;2023-03-31T18:32:51;13.40;92.50
5919;DHT22;2985;48.142;16.344;2023-03-31T18:38:01;13.50;92.30
5919;DHT22;2985;48.142;16.344;2023-03-31T18:43:11;13.40;92.50
5919;DHT22;2985;48.142;16.344;2023-03-31T18:48:21;13.40;92.60
5919;DHT22;2985;48.142;16.344;2023-03-31T18:53:31;13.40;92.80
5919;DHT22;2985;48.142;16.344;2023-03-31T18:58:42;13.30;92.80
5919;DHT22;2985;48.142;16.344;2023-03-31T19:03:52;13.30;92.90
5919;DHT22;2985;48.142;16.344;2023-03-31T19:09:02;13.30;93.00
5919;DHT22;2985;48.142;16.344;2023-03-31T19:14:12;13.30;93.10
5919;DHT22;2985;48.142;16.344;2023-03-31T19:19:22;13.20;93.20
5919;DHT22;2985;48.142;16.344;2023-03-31T19:24:33;13.20;93.20
5919;DHT22;2985;48.142;16.344;2023-03-31T19:29:43;13.20;93.30
5919;DHT22;2985;48.142;16.344;2023-03-31T19:34:56;13.20;93.40
5919;DHT22;2985;48.142;16.344;2023-03-31T19:40:07;13.10;93.50
5919;DHT22;2985;48.142;16.344;2023-03-31T19:45:17;13.00;93.50
5919;DHT22;2985;48.142;16.344;2023-03-31T19:50:28;13.00;93.60
5919;DHT22;2985;48.142;16.344;2023-03-31T19:55:41;12.90;93.70
5919;DHT22;2985;48.142;16.344;2023-03-31T20:00:52;12.90;93.70
5919;DHT22;2985;48.142;16.344;2023-03-31T20:06:06;12.90;93.70
5919;DHT22;2985;48.142;16.344;2023-03-31T20:11:16;12.90;93.70
5919;DHT22;2985;48.142;16.344;2023-03-31T20:16:30;12.90;93.60
5919;DHT22;2985;48.142;16.344;2023-03-31T20:21:39;12.90;93.60
5919;DHT22;2985;48.142;16.344;2023-03-31T20:26:50;12.80;93.90
5919;DHT22;2985;48.142;16.344;2023-03-31T20:32:01;12.70;93.90
5919;DHT22;2985;48.142;16.344;2023-03-31T20:37:12;12.70;93.90
5919;DHT22;2985;48.142;16.344;2023-03-31T20:42:22;12.60;93.90
5919;DHT22;2985;48.142;16.344;2023-03-31T20:47:33;12.60;94.00
5919;DHT22;2985;48.142;16.344;2023-03-31T20:52:43;12.60;94.00
5919;DHT22;2985;48.142;16.344;2023-03-31T20:57:55;12.50;94.00
5919;DHT22;2985;48.142;16.344;2023-03-31T21:03:05;12.50;94.10
5919;DHT22;2985;48.142;16.344;2023-03-31T21:08:15;12.50;94.20
5919;DHT22;2985;48.142;16.344;2023-03-31T21:13:25;12.40;94.10
5919;DHT22;2985;48.142;16.344;2023-03-31T21:18:35;12.40;94.30
5919;DHT22;2985;48.142;16.344;2023-03-31T21:23:46;12.40;94.40
5919;DHT22;2985;48.142;16.344;2023-03-31T21:28:55;12.40;94.40
5919;DHT22;2985;48.142;16.344;2023-03-31T21:34:05;12.40;94.50
5919;DHT22;2985;48.142;16.344;2023-03-31T21:39:14;12.40;94.40
5919;DHT22;2985;48.142;16.344;2023-03-31T21:44:24;12.40;94.40
5919;DHT22;2985;48.142;16.344;2023-03-31T21:49:34;12.30;94.70
5919;DHT22;2985;48.142;16.344;2023-03-31T21:54:44;12.30;94.80
5919;DHT22;2985;48.142;16.344;2023-03-31T21:59:54;12.20;94.90
5919;DHT22;2985;48.142;16.344;2023-03-31T22:05:05;12.20;95.00
5919;DHT22;2985;48.142;16.344;2023-03-31T22:10:14;12.20;93.90
5919;DHT22;2985;48.142;16.344;2023-03-31T22:25:43;12.10;93.80
5919;DHT22;2985;48.142;16.344;2023-03-31T22:30:52;12.10;94.10
5919;DHT22;2985;48.142;16.344;2023-03-31T22:36:01;12.00;94.00
5919;DHT22;2985;48.142;16.344;2023-03-31T22:41:10;11.90;94.40
5919;DHT22;2985;48.142;16.344;2023-03-31T22:46:20;11.80;94.70
5919;DHT22;2985;48.142;16.344;2023-03-31T22:56:40;11.80;94.90
5919;DHT22;2985;48.142;16.344;2023-03-31T23:01:50;11.80;95.10
5919;DHT22;2985;48.142;16.344;2023-03-31T23:07:02;11.80;95.10
5919;DHT22;2985;48.142;16.344;2023-03-31T23:12:11;11.80;95.40
5919;DHT22;2985;48.142;16.344;2023-03-31T23:17:21;11.70;95.40
5919;DHT22;2985;48.142;16.344;2023-03-31T23:22:30;11.70;95.50
5919;DHT22;2985;48.142;16.344;2023-03-31T23:27:40;11.70;95.70
5919;DHT22;2985;48.142;16.344;2023-03-31T23:32:49;11.70;95.70
5919;DHT22;2985;48.142;16.344;2023-03-31T23:37:58;11.60;95.90
5919;DHT22;2985;48.142;16.344;2023-03-31T23:43:08;11.60;95.80
5919;DHT22;2985;48.142;16.344;2023-03-31T23:48:17;11.50;95.90
5919;DHT22;2985;48.142;16.344;2023-03-31T23:53:27;11.60;95.60
5919;DHT22;2985;48.142;16.344;2023-03-31T23:58:37;11.50;95.70
